createdAt,value
2018-08-23T00:00:51.389Z,19.57
2018-08-23T00:03:31.213Z,19.54
2018-08-23T00:06:10.277Z,19.49
2018-08-23T00:08:51.931Z,19.47
2018-08-23T00:11:34.126Z,19.44
2018-08-23T00:14:10.481Z,19.40
2018-08-23T00:16:45.143Z,19.37
2018-08-23T00:19:18.819Z,19.34
2018-08-23T00:21:52.723Z,19.31
2018-08-23T00:24:26.666Z,19.28
2018-08-23T00:27:02.950Z,19.25
2018-08-23T00:29:38.914Z,19.21
2018-08-23T00:32:14.393Z,19.18
2018-08-23T00:34:50.405Z,19.15
2018-08-23T00:37:26.809Z,19.11
2018-08-23T00:40:07.907Z,19.09
2018-08-23T00:42:43.192Z,19.07
2018-08-23T00:45:23.619Z,19.06
2018-08-23T00:48:01.666Z,19.11
2018-08-23T00:51:09.301Z,19.24
2018-08-23T00:54:16.835Z,19.32
2018-08-23T00:56:54.672Z,19.41
2018-08-23T00:59:31.343Z,19.45
2018-08-23T01:02:10.241Z,19.47
2018-08-23T01:04:46.175Z,19.52
2018-08-23T01:07:21.887Z,19.55
2018-08-23T01:09:51.323Z,19.62
2018-08-23T01:12:21.159Z,19.69
2018-08-23T01:14:52.376Z,19.77
2018-08-23T01:17:21.869Z,19.81
2018-08-23T01:20:01.125Z,19.85
2018-08-23T01:22:30.674Z,19.88
2018-08-23T01:25:01.424Z,19.91
2018-08-23T01:27:36.057Z,20.05
2018-08-23T01:30:06.385Z,20.08
2018-08-23T01:32:35.889Z,20.10
2018-08-23T01:35:06.531Z,20.11
2018-08-23T01:37:39.782Z,20.13
2018-08-23T01:40:15.326Z,20.17
2018-08-23T01:42:51.569Z,20.19
2018-08-23T01:45:21.107Z,20.24
2018-08-23T01:47:53.682Z,20.28
2018-08-23T01:50:23.280Z,20.32
2018-08-23T01:52:54.395Z,20.35
2018-08-23T01:55:24.683Z,20.36
2018-08-23T01:57:54.579Z,20.38
2018-08-23T02:00:43.329Z,20.39
2018-08-23T02:03:12.890Z,20.39
2018-08-23T02:05:43.250Z,20.42
2018-08-23T02:08:12.695Z,20.46
2018-08-23T02:10:42.329Z,20.45
2018-08-23T02:13:16.130Z,20.43
2018-08-23T02:15:50.751Z,20.42
2018-08-23T02:18:20.382Z,20.40
2018-08-23T02:20:55.515Z,20.40
2018-08-23T02:23:25.185Z,20.40
2018-08-23T02:25:54.615Z,20.40
2018-08-23T02:28:24.135Z,20.38
2018-08-23T02:30:54.907Z,20.35
2018-08-23T02:33:24.890Z,20.33
2018-08-23T02:36:22.663Z,20.35
2018-08-23T02:39:04.396Z,20.36
2018-08-23T02:41:33.928Z,20.37
2018-08-23T02:44:03.375Z,20.40
2018-08-23T02:46:33.183Z,20.43
2018-08-23T02:49:02.802Z,20.43
2018-08-23T02:51:44.239Z,20.46
2018-08-23T02:54:15.789Z,20.45
2018-08-23T02:56:49.058Z,20.44
2018-08-23T02:59:18.678Z,20.47
2018-08-23T03:01:49.260Z,20.48
2018-08-23T03:04:20.082Z,20.51
2018-08-23T03:06:53.964Z,20.52
2018-08-23T03:09:25.880Z,20.55
2018-08-23T03:11:56.413Z,20.57
2018-08-23T03:14:26.687Z,20.60
2018-08-23T03:17:18.707Z,20.61
2018-08-23T03:20:06.243Z,20.61
2018-08-23T03:22:35.904Z,20.60
2018-08-23T03:25:08.766Z,20.59
2018-08-23T03:27:38.361Z,20.60
2018-08-23T03:30:10.409Z,20.60
2018-08-23T03:32:39.838Z,20.59
2018-08-23T03:35:10.025Z,20.57
2018-08-23T03:37:39.593Z,20.57
2018-08-23T03:40:10.631Z,20.57
2018-08-23T03:42:40.443Z,20.58
2018-08-23T03:45:15.950Z,20.68
2018-08-23T03:47:50.583Z,20.68
2018-08-23T03:50:20.139Z,20.69
2018-08-23T03:52:51.273Z,20.69
2018-08-23T03:55:23.926Z,20.68
2018-08-23T03:57:58.576Z,20.70
2018-08-23T04:00:33.344Z,20.71
2018-08-23T04:03:04.561Z,20.72
2018-08-23T04:05:34.059Z,20.74
2018-08-23T04:08:03.554Z,20.75
2018-08-23T04:10:33.080Z,20.76
2018-08-23T04:13:02.498Z,20.79
2018-08-23T04:15:32.736Z,20.79
2018-08-23T04:18:10.326Z,20.77
2018-08-23T04:20:55.569Z,20.74
2018-08-23T04:23:25.208Z,20.74
2018-08-23T04:25:54.768Z,20.74
2018-08-23T04:28:24.337Z,20.72
2018-08-23T04:30:53.882Z,20.70
2018-08-23T04:33:23.446Z,20.73
2018-08-23T04:35:52.933Z,20.75
2018-08-23T04:38:22.489Z,20.74
2018-08-23T04:41:09.441Z,20.72
2018-08-23T04:43:38.872Z,20.71
2018-08-23T04:46:12.393Z,20.70
2018-08-23T04:48:42.087Z,20.68
2018-08-23T04:51:11.579Z,20.66
2018-08-23T04:53:41.275Z,20.65
2018-08-23T04:56:10.843Z,20.65
2018-08-23T04:58:41.127Z,20.66
2018-08-23T05:01:11.942Z,20.67
2018-08-23T05:03:41.346Z,20.65
2018-08-23T05:06:10.736Z,20.64
2018-08-23T05:08:40.153Z,20.65
2018-08-23T05:11:09.569Z,20.67
2018-08-23T05:13:39.047Z,20.66
2018-08-23T05:16:08.457Z,20.67
2018-08-23T05:18:37.885Z,20.67
2018-08-23T05:21:07.397Z,20.67
2018-08-23T05:23:36.814Z,20.68
2018-08-23T05:26:11.950Z,20.70
2018-08-23T05:28:43.449Z,20.70
2018-08-23T05:31:12.855Z,20.75
2018-08-23T05:33:42.239Z,20.78
2018-08-23T05:36:18.275Z,20.82
2018-08-23T05:38:47.674Z,20.85
2018-08-23T05:41:17.778Z,20.88
2018-08-23T05:43:53.026Z,20.88
2018-08-23T05:46:22.382Z,20.85
2018-08-23T05:48:51.804Z,20.81
2018-08-23T05:51:21.286Z,20.80
2018-08-23T05:53:53.875Z,20.80
2018-08-23T05:56:23.298Z,20.81
2018-08-23T05:58:54.840Z,20.83
2018-08-23T06:01:24.245Z,20.85
2018-08-23T06:03:53.592Z,20.86
2018-08-23T06:06:22.941Z,20.95
2018-08-23T06:08:57.393Z,20.97
2018-08-23T06:11:26.747Z,20.93
2018-08-23T06:13:56.153Z,20.90
2018-08-23T06:16:25.559Z,20.90
2018-08-23T06:18:54.935Z,20.95
2018-08-23T06:21:24.340Z,21.00
2018-08-23T06:23:54.364Z,21.07
2018-08-23T06:26:35.399Z,21.12
2018-08-23T06:29:04.791Z,21.18
2018-08-23T06:31:34.189Z,21.21
2018-08-23T06:34:03.753Z,21.27
2018-08-23T06:36:37.434Z,21.36
2018-08-23T06:39:13.782Z,21.42
2018-08-23T06:41:43.162Z,21.51
2018-08-23T06:44:12.777Z,21.62
2018-08-23T06:46:42.262Z,21.72
2018-08-23T06:49:11.694Z,21.81
2018-08-23T06:51:41.076Z,21.90
2018-08-23T06:54:10.413Z,21.97
2018-08-23T06:56:39.786Z,22.06
2018-08-23T06:59:09.787Z,22.13
2018-08-23T07:01:44.339Z,22.12
2018-08-23T07:04:14.463Z,22.15
2018-08-23T07:06:43.925Z,22.21
2018-08-23T07:09:15.122Z,22.24
2018-08-23T07:11:44.753Z,22.24
2018-08-23T07:14:15.453Z,22.26
2018-08-23T07:16:46.203Z,22.28
2018-08-23T07:19:29.011Z,22.27
2018-08-23T07:22:00.819Z,22.33
2018-08-23T07:24:46.811Z,22.33
2018-08-23T07:29:52.105Z,22.39
2018-08-23T07:32:22.661Z,22.41
2018-08-23T07:35:00.159Z,22.46
2018-08-23T07:37:30.126Z,22.56
2018-08-23T07:40:04.861Z,22.76
2018-08-23T07:42:35.144Z,22.92
2018-08-23T07:45:04.726Z,23.02
2018-08-23T07:47:36.465Z,23.07
2018-08-23T07:50:07.153Z,23.09
2018-08-23T07:52:37.396Z,23.19
2018-08-23T07:55:08.534Z,23.31
2018-08-23T07:57:38.516Z,23.29
2018-08-23T08:00:27.727Z,23.24
2018-08-23T08:02:57.162Z,23.29
2018-08-23T08:05:29.756Z,23.32
2018-08-23T08:07:59.134Z,23.28
2018-08-23T08:10:36.788Z,23.25
2018-08-23T08:13:06.219Z,23.26
2018-08-23T08:15:35.820Z,23.27
2018-08-23T08:18:16.154Z,23.31
2018-08-23T08:20:50.856Z,23.26
2018-08-23T08:23:20.344Z,23.31
2018-08-23T08:25:49.850Z,23.44
2018-08-23T08:28:19.574Z,23.68
2018-08-23T08:30:56.504Z,23.73
2018-08-23T08:33:26.286Z,23.85
2018-08-23T08:36:00.067Z,23.96
2018-08-23T08:38:30.071Z,24.04
2018-08-23T08:40:59.581Z,24.24
2018-08-23T08:43:28.950Z,24.46
2018-08-23T08:45:59.379Z,24.64
2018-08-23T08:48:33.892Z,24.83
2018-08-23T08:51:17.691Z,25.01
2018-08-23T08:53:47.681Z,25.10
2018-08-23T08:56:22.643Z,25.16
2018-08-23T08:58:52.278Z,25.26
2018-08-23T09:01:21.953Z,25.39
2018-08-23T09:03:51.362Z,25.45
2018-08-23T09:06:34.412Z,25.58
2018-08-23T09:09:14.491Z,25.66
2018-08-23T09:11:43.879Z,25.70
2018-08-23T09:14:13.254Z,25.78
2018-08-23T09:16:42.653Z,25.89
2018-08-23T09:19:14.950Z,26.09
2018-08-23T09:21:45.047Z,26.19
2018-08-23T09:24:27.100Z,26.31
2018-08-23T09:26:56.569Z,26.47
2018-08-23T09:29:38.423Z,26.57
2018-08-23T09:32:28.360Z,26.51
2018-08-23T09:34:59.893Z,26.42
2018-08-23T09:37:30.563Z,26.52
2018-08-23T09:40:00.666Z,26.57
2018-08-23T09:42:34.551Z,26.65
2018-08-23T09:45:11.903Z,26.76
2018-08-23T09:47:41.365Z,26.86
2018-08-23T09:50:10.794Z,26.91
2018-08-23T09:52:41.868Z,26.97
2018-08-23T09:55:12.604Z,26.93
2018-08-23T09:57:42.449Z,26.93
2018-08-23T10:00:14.030Z,26.93
2018-08-23T10:02:49.947Z,26.97
2018-08-23T10:05:24.495Z,27.14
2018-08-23T10:07:59.081Z,27.31
2018-08-23T10:10:33.651Z,27.46
2018-08-23T10:13:08.383Z,27.52
2018-08-23T10:15:43.003Z,27.43
2018-08-23T10:18:17.525Z,27.24
2018-08-23T10:20:52.172Z,27.06
2018-08-23T10:23:22.986Z,27.00
2018-08-23T10:25:53.517Z,26.89
2018-08-23T10:28:24.341Z,26.80
2018-08-23T10:30:53.933Z,26.96
2018-08-23T10:33:23.363Z,27.04
2018-08-23T10:35:54.160Z,26.89
2018-08-23T10:38:24.918Z,26.66
2018-08-23T10:40:58.377Z,26.36
2018-08-23T10:43:32.946Z,25.98
2018-08-23T10:46:06.564Z,25.75
2018-08-23T10:48:35.946Z,25.65
2018-08-23T10:51:06.525Z,25.67
2018-08-23T10:53:35.808Z,25.75
2018-08-23T10:56:06.224Z,25.83
2018-08-23T10:58:35.610Z,25.79
2018-08-23T11:01:06.065Z,25.77
2018-08-23T11:03:35.399Z,25.83
2018-08-23T11:06:06.093Z,25.89
2018-08-23T11:08:37.023Z,25.96
2018-08-23T11:11:11.741Z,26.11
2018-08-23T11:13:46.347Z,26.28
2018-08-23T11:16:20.800Z,26.46
2018-08-23T11:18:55.533Z,26.75
2018-08-23T11:21:24.948Z,27.08
2018-08-23T11:23:54.352Z,27.30
2018-08-23T11:26:25.093Z,27.49
2018-08-23T11:28:54.531Z,27.57
2018-08-23T11:31:28.764Z,27.69
2018-08-23T11:33:58.139Z,27.92
2018-08-23T11:36:27.538Z,28.11
2018-08-23T11:38:56.904Z,28.22
2018-08-23T11:41:27.915Z,28.10
2018-08-23T11:43:57.364Z,27.80
2018-08-23T11:46:26.757Z,27.46
2018-08-23T11:48:56.135Z,27.16
2018-08-23T11:51:25.534Z,27.01
2018-08-23T11:53:54.905Z,26.90
2018-08-23T11:56:24.271Z,26.76
2018-08-23T11:58:53.661Z,26.70
2018-08-23T12:01:23.096Z,26.56
2018-08-23T12:03:52.510Z,26.46
2018-08-23T12:06:21.940Z,26.37
2018-08-23T12:08:51.312Z,26.25
2018-08-23T12:11:20.727Z,26.19
2018-08-23T12:13:51.133Z,26.08
2018-08-23T12:16:20.510Z,26.05
2018-08-23T12:18:49.872Z,25.93
2018-08-23T12:21:19.271Z,25.82
2018-08-23T12:23:48.631Z,25.79
2018-08-23T12:26:18.405Z,25.96
2018-08-23T12:28:52.963Z,26.25
2018-08-23T12:31:22.318Z,26.50
2018-08-23T12:33:51.702Z,26.56
2018-08-23T12:36:26.309Z,26.50
2018-08-23T12:39:00.911Z,26.34
2018-08-23T12:41:35.327Z,26.23
2018-08-23T12:44:04.747Z,26.12
2018-08-23T12:46:34.252Z,25.99
2018-08-23T12:49:03.562Z,25.84
2018-08-23T12:51:33.022Z,25.76
2018-08-23T12:54:02.414Z,25.70
2018-08-23T12:56:31.898Z,25.76
2018-08-23T12:59:01.334Z,25.93
2018-08-23T13:01:30.846Z,26.17
2018-08-23T13:04:00.289Z,26.49
2018-08-23T13:06:29.718Z,26.81
2018-08-23T13:08:59.062Z,26.77
2018-08-23T13:11:28.479Z,26.71
2018-08-23T13:13:57.841Z,26.75
2018-08-23T13:16:27.283Z,26.95
2018-08-23T13:18:56.658Z,28.23
2018-08-23T13:21:26.201Z,29.28
2018-08-23T13:23:55.567Z,29.46
2018-08-23T13:26:29.063Z,29.35
2018-08-23T13:28:58.453Z,29.26
2018-08-23T13:31:27.815Z,29.13
2018-08-23T13:33:57.202Z,28.95
2018-08-23T13:36:26.784Z,28.74
2018-08-23T13:38:56.139Z,28.55
2018-08-23T13:41:25.563Z,28.39
2018-08-23T13:43:55.019Z,28.22
2018-08-23T13:46:24.470Z,28.12
2018-08-23T13:48:53.827Z,28.00
2018-08-23T13:51:23.279Z,28.00
2018-08-23T13:53:52.707Z,28.11
2018-08-23T13:56:22.494Z,28.05
2018-08-23T13:58:52.066Z,27.83
2018-08-23T14:01:25.065Z,27.45
2018-08-23T14:03:55.304Z,27.03
2018-08-23T14:06:24.978Z,26.71
2018-08-23T14:08:54.382Z,26.56
2018-08-23T14:11:23.798Z,26.54
2018-08-23T14:13:53.179Z,26.56
2018-08-23T14:16:22.610Z,26.67
2018-08-23T14:18:52.043Z,26.92
2018-08-23T14:21:21.460Z,27.18
2018-08-23T14:23:50.874Z,27.49
2018-08-23T14:26:20.284Z,27.90
2018-08-23T14:28:49.642Z,28.28
2018-08-23T14:31:19.035Z,28.45
2018-08-23T14:33:48.424Z,28.55
2018-08-23T14:36:17.868Z,28.56
2018-08-23T14:38:47.334Z,28.43
2018-08-23T14:41:16.673Z,28.39
2018-08-23T14:43:46.074Z,28.37
2018-08-23T14:46:20.609Z,28.33
2018-08-23T14:48:51.177Z,28.20
2018-08-23T14:51:20.714Z,27.91
2018-08-23T14:53:52.027Z,27.79
2018-08-23T14:56:26.620Z,27.89
2018-08-23T14:58:56.143Z,27.86
2018-08-23T15:01:25.531Z,27.72
2018-08-23T15:03:54.871Z,27.41
2018-08-23T15:06:24.267Z,27.10
2018-08-23T15:08:53.645Z,26.88
2018-08-23T15:11:23.030Z,26.70
2018-08-23T15:13:52.410Z,26.54
2018-08-23T15:16:21.922Z,26.46
2018-08-23T15:18:51.367Z,26.42
2018-08-23T15:21:20.743Z,26.62
2018-08-23T15:23:50.139Z,26.88
2018-08-23T15:26:25.402Z,27.00
2018-08-23T15:28:54.984Z,27.07
2018-08-23T15:31:24.512Z,27.37
2018-08-23T15:33:54.337Z,27.38
2018-08-23T15:36:23.902Z,27.43
2018-08-23T15:38:54.113Z,27.52
2018-08-23T15:41:23.732Z,27.60
2018-08-23T15:43:53.122Z,27.47
2018-08-23T15:46:23.179Z,27.24
2018-08-23T15:48:53.036Z,27.10
2018-08-23T15:54:04.804Z,26.94
2018-08-23T15:56:34.246Z,26.89
2018-08-23T15:59:03.797Z,26.85
2018-08-23T16:01:33.510Z,26.74
2018-08-23T16:04:03.027Z,26.55
2018-08-23T16:06:32.376Z,26.35
2018-08-23T16:09:01.786Z,26.26
2018-08-23T16:11:32.012Z,26.26
2018-08-23T16:14:01.993Z,26.25
2018-08-23T16:16:36.589Z,26.23
2018-08-23T16:19:17.456Z,26.16
2018-08-23T16:21:51.088Z,26.03
2018-08-23T16:24:20.559Z,25.93
2018-08-23T16:26:55.565Z,25.88
2018-08-23T16:29:30.106Z,25.88
2018-08-23T16:32:00.112Z,25.77
2018-08-23T16:34:30.186Z,25.64
2018-08-23T16:36:59.820Z,25.53
2018-08-23T16:39:29.613Z,25.41
2018-08-23T16:44:41.825Z,25.22
2018-08-23T16:47:12.043Z,25.16
2018-08-23T16:49:41.948Z,25.13
2018-08-23T16:52:12.064Z,25.21
2018-08-23T16:54:42.042Z,25.14
2018-08-23T16:57:11.722Z,25.09
2018-08-23T16:59:41.828Z,25.00
2018-08-23T17:02:11.469Z,24.92
2018-08-23T17:04:42.930Z,24.89
2018-08-23T17:07:13.553Z,24.88
2018-08-23T17:09:42.950Z,24.84
2018-08-23T17:12:12.317Z,24.80
2018-08-23T17:14:41.733Z,24.78
2018-08-23T17:17:16.568Z,24.76
2018-08-23T17:19:45.987Z,24.75
2018-08-23T17:22:15.434Z,24.71
2018-08-23T17:24:44.830Z,24.63
2018-08-23T17:27:14.615Z,24.57
2018-08-23T17:29:44.057Z,24.48
2018-08-23T17:32:13.454Z,24.42
2018-08-23T17:34:42.839Z,24.45
2018-08-23T17:37:12.260Z,24.40
2018-08-23T17:39:41.707Z,24.32
2018-08-23T17:42:11.258Z,24.24
2018-08-23T17:44:40.652Z,24.19
2018-08-23T17:50:07.277Z,24.14
2018-08-23T17:52:36.797Z,24.11
2018-08-23T17:55:08.883Z,24.08
2018-08-23T17:57:38.350Z,24.09
2018-08-23T18:00:07.871Z,24.11
2018-08-23T18:02:37.346Z,24.13
2018-08-23T18:05:08.216Z,24.09
2018-08-23T18:07:37.742Z,24.06
2018-08-23T18:10:08.674Z,24.01
2018-08-23T18:12:38.099Z,23.96
2018-08-23T18:15:09.511Z,23.92
2018-08-23T18:17:39.939Z,23.85
2018-08-23T18:20:09.709Z,23.80
2018-08-23T18:22:39.156Z,23.72
2018-08-23T18:25:08.554Z,23.67
2018-08-23T18:27:38.004Z,23.65
2018-08-23T18:30:07.614Z,23.60
2018-08-23T18:32:37.087Z,23.57
2018-08-23T18:35:06.915Z,23.55
2018-08-23T18:37:37.337Z,23.51
2018-08-23T18:40:06.828Z,23.49
2018-08-23T18:42:36.264Z,23.48
2018-08-23T18:45:06.505Z,23.43
2018-08-23T18:47:35.895Z,23.39
2018-08-23T18:50:05.846Z,23.35
2018-08-23T18:52:35.756Z,23.32
2018-08-23T18:55:06.429Z,23.32
2018-08-23T18:57:36.248Z,23.28
2018-08-23T19:00:08.645Z,23.25
2018-08-23T19:02:38.809Z,23.24
2018-08-23T19:05:10.975Z,23.26
2018-08-23T19:07:43.331Z,23.26
2018-08-23T19:10:13.473Z,23.25
2018-08-23T19:12:43.576Z,23.24
2018-08-23T19:15:13.454Z,23.23
2018-08-23T19:17:44.255Z,23.23
2018-08-23T19:20:14.415Z,23.24
2018-08-23T19:22:44.394Z,23.20
2018-08-23T19:25:14.946Z,22.88
2018-08-23T19:27:46.043Z,22.42
2018-08-23T19:30:16.226Z,21.98
2018-08-23T19:32:46.044Z,21.64
2018-08-23T19:35:16.279Z,21.31
2018-08-23T19:37:46.456Z,21.03
2018-08-23T19:40:16.439Z,20.85
2018-08-23T19:42:46.167Z,20.72
2018-08-23T19:45:16.089Z,20.58
2018-08-23T19:47:51.179Z,20.47
2018-08-23T19:50:21.054Z,20.37
2018-08-23T19:52:50.882Z,20.29
2018-08-23T19:55:21.030Z,20.26
2018-08-23T19:57:50.935Z,20.26
2018-08-23T20:00:21.149Z,20.25
2018-08-23T20:02:51.205Z,20.25
2018-08-23T20:05:21.226Z,20.25
2018-08-23T20:07:53.601Z,20.23
2018-08-23T20:10:23.532Z,20.23
2018-08-23T20:12:53.336Z,20.25
2018-08-23T20:15:24.602Z,20.25
2018-08-23T20:17:54.996Z,20.23
2018-08-23T20:20:24.443Z,20.20
2018-08-23T20:22:53.858Z,20.18
2018-08-23T20:25:23.370Z,20.17
2018-08-23T20:27:52.817Z,20.13
2018-08-23T20:30:22.212Z,20.09
2018-08-23T20:32:52.240Z,20.07
2018-08-23T20:35:22.244Z,20.05
2018-08-23T20:37:51.951Z,20.02
2018-08-23T20:40:21.317Z,19.98
2018-08-23T20:42:50.685Z,19.95
2018-08-23T20:45:20.122Z,19.94
2018-08-23T20:47:50.094Z,19.90
2018-08-23T20:50:20.020Z,19.89
2018-08-23T20:52:49.919Z,19.81
2018-08-23T20:55:19.303Z,19.68
2018-08-23T20:57:48.862Z,19.56
2018-08-23T21:00:18.300Z,19.42
2018-08-23T21:02:47.803Z,19.30
2018-08-23T21:05:17.215Z,19.20
2018-08-23T21:07:46.766Z,19.10
2018-08-23T21:10:16.334Z,19.00
2018-08-23T21:12:45.932Z,18.87
2018-08-23T21:15:15.313Z,18.70
2018-08-23T21:17:46.483Z,18.57
2018-08-23T21:20:16.410Z,18.45
2018-08-23T21:22:46.254Z,18.34
2018-08-23T21:25:16.295Z,18.29
2018-08-23T21:27:46.072Z,18.27
2018-08-23T21:30:16.149Z,18.24
2018-08-23T21:32:45.922Z,18.22
2018-08-23T21:35:15.747Z,18.18
2018-08-23T21:37:45.700Z,18.17
2018-08-23T21:40:15.724Z,18.17
2018-08-23T21:42:45.514Z,18.17
2018-08-23T21:45:15.398Z,18.19
2018-08-23T21:47:45.358Z,18.19
2018-08-23T21:50:15.440Z,18.22
2018-08-23T21:52:45.462Z,18.21
2018-08-23T21:55:15.402Z,18.19
2018-08-23T21:57:45.528Z,18.19
2018-08-23T22:00:20.313Z,18.20
2018-08-23T22:02:52.695Z,18.21
2018-08-23T22:05:22.847Z,18.21
2018-08-23T22:07:53.436Z,18.19
2018-08-23T22:10:23.532Z,18.17
2018-08-23T22:12:53.609Z,18.12
2018-08-23T22:15:26.059Z,18.09
2018-08-23T22:17:55.982Z,18.05
2018-08-23T22:20:25.990Z,18.01
2018-08-23T22:22:56.003Z,18.01
2018-08-23T22:25:25.978Z,18.00
2018-08-23T22:27:56.220Z,17.99
2018-08-23T22:30:26.613Z,17.96
2018-08-23T22:32:56.630Z,17.95
2018-08-23T22:35:28.959Z,17.90
2018-08-23T22:37:58.931Z,17.87
2018-08-23T22:40:28.882Z,17.79
2018-08-23T22:42:58.626Z,17.68
2018-08-23T22:45:28.079Z,17.53
2018-08-23T22:47:57.428Z,17.40
2018-08-23T22:50:26.799Z,17.19
2018-08-23T22:52:56.314Z,17.19
2018-08-23T22:55:25.714Z,16.66
2018-08-23T22:57:55.181Z,17.01
2018-08-23T23:00:29.764Z,16.93
2018-08-23T23:02:59.211Z,16.85
2018-08-23T23:05:28.595Z,16.79
2018-08-23T23:08:02.180Z,16.74
2018-08-23T23:10:38.594Z,16.67
2018-08-23T23:13:15.085Z,16.62
2018-08-23T23:15:53.517Z,16.56
2018-08-23T23:18:31.878Z,16.49
2018-08-23T23:21:09.163Z,16.43
2018-08-23T23:23:46.258Z,16.36
2018-08-23T23:26:22.504Z,16.30
2018-08-23T23:28:59.358Z,16.24
2018-08-23T23:31:33.905Z,16.18
2018-08-23T23:34:09.211Z,16.12
2018-08-23T23:36:47.738Z,16.08
2018-08-23T23:39:23.984Z,16.01
2018-08-23T23:42:01.070Z,15.96
2018-08-23T23:44:37.724Z,15.93
2018-08-23T23:47:13.911Z,15.90
2018-08-23T23:49:49.887Z,15.88
2018-08-23T23:52:25.654Z,15.83
2018-08-23T23:55:03.128Z,15.81
2018-08-23T23:57:40.858Z,15.76
